sensor_id;sensor_type;location;lat;lon;timestamp;P1;durP1;ratioP1;P2;durP2;ratioP2
32295;SDS011;18781;51.550;5.418;2024-02-28T00:01:24;53.97;;;29.38;;
32295;SDS011;18781;51.550;5.418;2024-02-28T00:03:50;59.72;;;30.48;;
32295;SDS011;18781;51.550;5.418;2024-02-28T00:06:16;52.42;;;28.45;;
32295;SDS011;18781;51.550;5.418;2024-02-28T00:08:42;55.22;;;28.63;;
32295;SDS011;18781;51.550;5.418;2024-02-28T00:11:07;56.08;;;29.80;;
32295;SDS011;18781;51.550;5.418;2024-02-28T00:13:33;52.38;;;28.27;;
32295;SDS011;18781;51.550;5.418;2024-02-28T00:15:59;58.65;;;30.80;;
32295;SDS011;18781;51.550;5.418;2024-02-28T00:18:24;56.55;;;29.13;;
32295;SDS011;18781;51.550;5.418;2024-02-28T00:20:50;53.65;;;28.95;;
32295;SDS011;18781;51.550;5.418;2024-02-28T00:23:15;59.88;;;29.55;;
32295;SDS011;18781;51.550;5.418;2024-02-28T00:25:41;56.05;;;29.60;;
32295;SDS011;18781;51.550;5.418;2024-02-28T00:28:07;50.25;;;27.42;;
32295;SDS011;18781;51.550;5.418;2024-02-28T00:30:33;51.63;;;28.40;;
32295;SDS011;18781;51.550;5.418;2024-02-28T00:32:59;49.58;;;28.38;;
32295;SDS011;18781;51.550;5.418;2024-02-28T00:35:25;53.25;;;29.35;;
32295;SDS011;18781;51.550;5.418;2024-02-28T00:37:51;53.65;;;27.98;;
32295;SDS011;18781;51.550;5.418;2024-02-28T00:40:16;49.45;;;28.55;;
32295;SDS011;18781;51.550;5.418;2024-02-28T00:42:42;52.90;;;29.38;;
32295;SDS011;18781;51.550;5.418;2024-02-28T00:45:08;51.15;;;27.95;;
32295;SDS011;18781;51.550;5.418;2024-02-28T00:47:34;52.72;;;27.55;;
32295;SDS011;18781;51.550;5.418;2024-02-28T00:50:00;53.90;;;29.35;;
32295;SDS011;18781;51.550;5.418;2024-02-28T00:52:28;52.13;;;28.17;;
32295;SDS011;18781;51.550;5.418;2024-02-28T00:54:54;51.75;;;28.38;;
32295;SDS011;18781;51.550;5.418;2024-02-28T00:57:19;52.38;;;27.67;;
32295;SDS011;18781;51.550;5.418;2024-02-28T00:59:45;53.42;;;28.73;;
32295;SDS011;18781;51.550;5.418;2024-02-28T01:02:10;51.22;;;28.77;;
32295;SDS011;18781;51.550;5.418;2024-02-28T01:04:36;53.28;;;27.83;;
32295;SDS011;18781;51.550;5.418;2024-02-28T01:07:02;49.92;;;28.30;;
32295;SDS011;18781;51.550;5.418;2024-02-28T01:09:28;48.40;;;27.02;;
32295;SDS011;18781;51.550;5.418;2024-02-28T01:11:54;51.72;;;28.25;;
32295;SDS011;18781;51.550;5.418;2024-02-28T01:14:19;52.50;;;27.80;;
32295;SDS011;18781;51.550;5.418;2024-02-28T01:16:45;49.22;;;28.13;;
32295;SDS011;18781;51.550;5.418;2024-02-28T01:19:10;49.55;;;27.85;;
32295;SDS011;18781;51.550;5.418;2024-02-28T01:21:36;49.88;;;27.75;;
32295;SDS011;18781;51.550;5.418;2024-02-28T01:24:03;51.17;;;26.80;;
32295;SDS011;18781;51.550;5.418;2024-02-28T01:26:29;51.70;;;27.52;;
32295;SDS011;18781;51.550;5.418;2024-02-28T01:28:54;47.58;;;26.33;;
32295;SDS011;18781;51.550;5.418;2024-02-28T01:31:20;50.67;;;27.13;;
32295;SDS011;18781;51.550;5.418;2024-02-28T01:33:45;52.17;;;28.70;;
32295;SDS011;18781;51.550;5.418;2024-02-28T01:36:11;48.08;;;26.67;;
32295;SDS011;18781;51.550;5.418;2024-02-28T01:38:37;48.55;;;25.88;;
32295;SDS011;18781;51.550;5.418;2024-02-28T01:41:03;47.65;;;26.48;;
32295;SDS011;18781;51.550;5.418;2024-02-28T01:43:30;49.90;;;26.88;;
32295;SDS011;18781;51.550;5.418;2024-02-28T01:45:56;44.28;;;24.88;;
32295;SDS011;18781;51.550;5.418;2024-02-28T01:48:22;48.70;;;27.10;;
32295;SDS011;18781;51.550;5.418;2024-02-28T01:50:47;45.58;;;26.27;;
32295;SDS011;18781;51.550;5.418;2024-02-28T01:53:13;45.17;;;25.38;;
32295;SDS011;18781;51.550;5.418;2024-02-28T01:55:39;49.92;;;26.95;;
32295;SDS011;18781;51.550;5.418;2024-02-28T01:58:05;48.25;;;26.85;;
32295;SDS011;18781;51.550;5.418;2024-02-28T02:00:34;45.92;;;26.23;;
32295;SDS011;18781;51.550;5.418;2024-02-28T02:05:26;47.25;;;26.30;;
32295;SDS011;18781;51.550;5.418;2024-02-28T02:07:52;44.40;;;25.20;;
32295;SDS011;18781;51.550;5.418;2024-02-28T02:10:18;44.50;;;25.88;;
32295;SDS011;18781;51.550;5.418;2024-02-28T02:12:44;45.03;;;25.83;;
32295;SDS011;18781;51.550;5.418;2024-02-28T02:15:09;47.75;;;26.60;;
32295;SDS011;18781;51.550;5.418;2024-02-28T02:17:35;41.97;;;24.42;;
32295;SDS011;18781;51.550;5.418;2024-02-28T02:20:01;46.70;;;26.50;;
32295;SDS011;18781;51.550;5.418;2024-02-28T02:22:31;44.53;;;24.05;;
32295;SDS011;18781;51.550;5.418;2024-02-28T02:25:07;39.60;;;23.08;;
32295;SDS011;18781;51.550;5.418;2024-02-28T02:27:33;43.05;;;22.55;;
32295;SDS011;18781;51.550;5.418;2024-02-28T02:29:58;46.03;;;24.00;;
32295;SDS011;18781;51.550;5.418;2024-02-28T02:32:24;42.60;;;24.13;;
32295;SDS011;18781;51.550;5.418;2024-02-28T02:34:49;46.47;;;24.65;;
32295;SDS011;18781;51.550;5.418;2024-02-28T02:37:15;40.83;;;23.85;;
32295;SDS011;18781;51.550;5.418;2024-02-28T02:39:41;40.75;;;22.63;;
32295;SDS011;18781;51.550;5.418;2024-02-28T02:42:06;37.95;;;22.58;;
32295;SDS011;18781;51.550;5.418;2024-02-28T02:44:33;41.55;;;23.50;;
32295;SDS011;18781;51.550;5.418;2024-02-28T02:46:59;48.80;;;24.52;;
32295;SDS011;18781;51.550;5.418;2024-02-28T02:49:24;43.60;;;24.60;;
32295;SDS011;18781;51.550;5.418;2024-02-28T02:51:50;47.30;;;23.95;;
32295;SDS011;18781;51.550;5.418;2024-02-28T02:54:16;46.38;;;24.85;;
32295;SDS011;18781;51.550;5.418;2024-02-28T02:56:41;46.15;;;24.70;;
32295;SDS011;18781;51.550;5.418;2024-02-28T02:59:10;45.43;;;24.47;;
32295;SDS011;18781;51.550;5.418;2024-02-28T03:01:36;41.10;;;23.75;;
32295;SDS011;18781;51.550;5.418;2024-02-28T03:04:02;42.22;;;24.00;;
32295;SDS011;18781;51.550;5.418;2024-02-28T03:06:28;39.40;;;22.67;;
32295;SDS011;18781;51.550;5.418;2024-02-28T03:08:53;38.60;;;22.83;;
32295;SDS011;18781;51.550;5.418;2024-02-28T03:11:19;42.58;;;23.52;;
32295;SDS011;18781;51.550;5.418;2024-02-28T03:13:44;44.08;;;24.05;;
32295;SDS011;18781;51.550;5.418;2024-02-28T03:16:10;45.70;;;24.63;;
32295;SDS011;18781;51.550;5.418;2024-02-28T03:18:36;40.38;;;23.40;;
32295;SDS011;18781;51.550;5.418;2024-02-28T03:21:02;40.30;;;23.25;;
32295;SDS011;18781;51.550;5.418;2024-02-28T03:23:29;39.55;;;23.20;;
32295;SDS011;18781;51.550;5.418;2024-02-28T03:25:54;46.38;;;23.35;;
32295;SDS011;18781;51.550;5.418;2024-02-28T03:28:20;42.38;;;23.42;;
32295;SDS011;18781;51.550;5.418;2024-02-28T03:30:45;40.38;;;23.60;;
32295;SDS011;18781;51.550;5.418;2024-02-28T03:33:11;39.33;;;22.75;;
32295;SDS011;18781;51.550;5.418;2024-02-28T03:35:36;35.95;;;21.20;;
32295;SDS011;18781;51.550;5.418;2024-02-28T03:38:02;36.33;;;21.88;;
32295;SDS011;18781;51.550;5.418;2024-02-28T03:40:28;36.92;;;22.40;;
32295;SDS011;18781;51.550;5.418;2024-02-28T03:42:53;43.05;;;23.08;;
32295;SDS011;18781;51.550;5.418;2024-02-28T03:45:19;37.10;;;21.98;;
32295;SDS011;18781;51.550;5.418;2024-02-28T03:47:45;40.03;;;23.33;;
32295;SDS011;18781;51.550;5.418;2024-02-28T03:50:10;38.28;;;22.40;;
32295;SDS011;18781;51.550;5.418;2024-02-28T03:52:36;37.13;;;21.95;;
32295;SDS011;18781;51.550;5.418;2024-02-28T03:55:02;37.22;;;22.00;;
32295;SDS011;18781;51.550;5.418;2024-02-28T03:57:28;41.92;;;23.50;;
32295;SDS011;18781;51.550;5.418;2024-02-28T03:59:53;42.42;;;23.02;;
32295;SDS011;18781;51.550;5.418;2024-02-28T04:02:19;42.75;;;22.05;;
32295;SDS011;18781;51.550;5.418;2024-02-28T04:04:45;37.45;;;22.67;;
32295;SDS011;18781;51.550;5.418;2024-02-28T04:07:10;40.08;;;23.40;;
32295;SDS011;18781;51.550;5.418;2024-02-28T04:09:36;37.05;;;21.65;;
32295;SDS011;18781;51.550;5.418;2024-02-28T04:12:01;40.28;;;23.05;;
32295;SDS011;18781;51.550;5.418;2024-02-28T04:14:28;39.60;;;23.00;;
32295;SDS011;18781;51.550;5.418;2024-02-28T04:16:53;39.05;;;22.77;;
32295;SDS011;18781;51.550;5.418;2024-02-28T04:19:19;40.13;;;23.80;;
32295;SDS011;18781;51.550;5.418;2024-02-28T04:21:45;47.25;;;23.77;;
32295;SDS011;18781;51.550;5.418;2024-02-28T04:24:10;40.67;;;24.73;;
32295;SDS011;18781;51.550;5.418;2024-02-28T04:26:36;44.35;;;24.05;;
32295;SDS011;18781;51.550;5.418;2024-02-28T04:29:01;44.40;;;24.38;;
32295;SDS011;18781;51.550;5.418;2024-02-28T04:31:32;44.63;;;24.70;;
32295;SDS011;18781;51.550;5.418;2024-02-28T04:33:58;41.13;;;24.60;;
32295;SDS011;18781;51.550;5.418;2024-02-28T04:36:24;41.15;;;23.80;;
32295;SDS011;18781;51.550;5.418;2024-02-28T04:38:50;41.85;;;24.08;;
32295;SDS011;18781;51.550;5.418;2024-02-28T04:41:15;39.47;;;23.98;;
32295;SDS011;18781;51.550;5.418;2024-02-28T04:43:41;43.65;;;23.42;;
32295;SDS011;18781;51.550;5.418;2024-02-28T04:46:06;41.42;;;24.45;;
32295;SDS011;18781;51.550;5.418;2024-02-28T04:48:32;45.45;;;24.23;;
32295;SDS011;18781;51.550;5.418;2024-02-28T04:50:59;45.53;;;24.35;;
32295;SDS011;18781;51.550;5.418;2024-02-28T04:53:26;42.63;;;23.55;;
32295;SDS011;18781;51.550;5.418;2024-02-28T04:55:52;43.25;;;24.98;;
32295;SDS011;18781;51.550;5.418;2024-02-28T04:58:17;40.22;;;23.52;;
32295;SDS011;18781;51.550;5.418;2024-02-28T05:00:43;44.83;;;24.13;;
32295;SDS011;18781;51.550;5.418;2024-02-28T05:03:08;42.30;;;24.13;;
32295;SDS011;18781;51.550;5.418;2024-02-28T05:05:34;41.08;;;22.75;;
32295;SDS011;18781;51.550;5.418;2024-02-28T05:07:59;40.30;;;23.38;;
32295;SDS011;18781;51.550;5.418;2024-02-28T05:10:25;40.78;;;23.50;;
32295;SDS011;18781;51.550;5.418;2024-02-28T05:12:51;41.92;;;24.20;;
32295;SDS011;18781;51.550;5.418;2024-02-28T05:15:16;39.20;;;23.77;;
32295;SDS011;18781;51.550;5.418;2024-02-28T05:17:42;42.45;;;23.10;;
32295;SDS011;18781;51.550;5.418;2024-02-28T05:20:08;41.55;;;23.95;;
32295;SDS011;18781;51.550;5.418;2024-02-28T05:22:34;40.67;;;23.42;;
32295;SDS011;18781;51.550;5.418;2024-02-28T05:24:59;41.58;;;24.48;;
32295;SDS011;18781;51.550;5.418;2024-02-28T05:27:25;46.38;;;24.55;;
32295;SDS011;18781;51.550;5.418;2024-02-28T05:29:51;40.30;;;24.20;;
32295;SDS011;18781;51.550;5.418;2024-02-28T05:32:17;42.97;;;25.50;;
32295;SDS011;18781;51.550;5.418;2024-02-28T05:34:42;45.13;;;25.40;;
32295;SDS011;18781;51.550;5.418;2024-02-28T05:37:08;41.72;;;24.58;;
32295;SDS011;18781;51.550;5.418;2024-02-28T05:39:34;45.78;;;24.67;;
32295;SDS011;18781;51.550;5.418;2024-02-28T05:42:00;41.70;;;25.23;;
32295;SDS011;18781;51.550;5.418;2024-02-28T05:44:25;43.67;;;24.98;;
32295;SDS011;18781;51.550;5.418;2024-02-28T05:46:51;47.45;;;25.92;;
32295;SDS011;18781;51.550;5.418;2024-02-28T05:49:17;48.75;;;25.92;;
32295;SDS011;18781;51.550;5.418;2024-02-28T05:51:42;46.88;;;25.33;;
32295;SDS011;18781;51.550;5.418;2024-02-28T05:54:08;46.30;;;26.15;;
32295;SDS011;18781;51.550;5.418;2024-02-28T05:56:35;52.45;;;27.35;;
32295;SDS011;18781;51.550;5.418;2024-02-28T05:59:00;51.80;;;27.38;;
32295;SDS011;18781;51.550;5.418;2024-02-28T06:01:26;50.92;;;27.52;;
32295;SDS011;18781;51.550;5.418;2024-02-28T06:03:51;45.05;;;25.50;;
32295;SDS011;18781;51.550;5.418;2024-02-28T06:06:17;47.88;;;26.42;;
32295;SDS011;18781;51.550;5.418;2024-02-28T06:08:43;46.97;;;26.38;;
32295;SDS011;18781;51.550;5.418;2024-02-28T06:11:09;51.28;;;25.77;;
32295;SDS011;18781;51.550;5.418;2024-02-28T06:13:35;48.65;;;26.23;;
32295;SDS011;18781;51.550;5.418;2024-02-28T06:16:01;47.58;;;25.05;;
32295;SDS011;18781;51.550;5.418;2024-02-28T06:18:27;43.25;;;24.85;;
32295;SDS011;18781;51.550;5.418;2024-02-28T06:20:55;48.78;;;25.80;;
32295;SDS011;18781;51.550;5.418;2024-02-28T06:23:21;44.17;;;24.85;;
32295;SDS011;18781;51.550;5.418;2024-02-28T06:25:47;51.10;;;26.63;;
32295;SDS011;18781;51.550;5.418;2024-02-28T06:28:13;51.55;;;28.65;;
32295;SDS011;18781;51.550;5.418;2024-02-28T06:30:39;54.45;;;27.15;;
32295;SDS011;18781;51.550;5.418;2024-02-28T06:33:05;54.80;;;27.08;;
32295;SDS011;18781;51.550;5.418;2024-02-28T06:35:31;54.78;;;27.92;;
32295;SDS011;18781;51.550;5.418;2024-02-28T06:37:57;52.30;;;27.20;;
32295;SDS011;18781;51.550;5.418;2024-02-28T06:40:22;54.65;;;27.48;;
32295;SDS011;18781;51.550;5.418;2024-02-28T06:42:48;48.17;;;27.73;;
32295;SDS011;18781;51.550;5.418;2024-02-28T06:45:13;53.25;;;28.27;;
32295;SDS011;18781;51.550;5.418;2024-02-28T06:47:39;58.08;;;29.88;;
32295;SDS011;18781;51.550;5.418;2024-02-28T06:50:05;52.92;;;27.70;;
32295;SDS011;18781;51.550;5.418;2024-02-28T06:52:31;56.42;;;29.52;;
32295;SDS011;18781;51.550;5.418;2024-02-28T06:54:58;57.25;;;28.65;;
32295;SDS011;18781;51.550;5.418;2024-02-28T06:57:25;53.88;;;28.38;;
32295;SDS011;18781;51.550;5.418;2024-02-28T06:59:51;58.63;;;29.00;;
32295;SDS011;18781;51.550;5.418;2024-02-28T07:02:16;53.75;;;29.08;;
32295;SDS011;18781;51.550;5.418;2024-02-28T07:04:42;56.47;;;29.95;;
32295;SDS011;18781;51.550;5.418;2024-02-28T07:07:08;52.30;;;28.17;;
32295;SDS011;18781;51.550;5.418;2024-02-28T07:09:34;50.45;;;27.85;;
32295;SDS011;18781;51.550;5.418;2024-02-28T07:11:59;54.95;;;29.27;;
32295;SDS011;18781;51.550;5.418;2024-02-28T07:14:26;60.28;;;29.92;;
32295;SDS011;18781;51.550;5.418;2024-02-28T07:16:51;58.25;;;27.70;;
32295;SDS011;18781;51.550;5.418;2024-02-28T07:19:17;55.50;;;29.73;;
32295;SDS011;18781;51.550;5.418;2024-02-28T07:21:43;53.17;;;28.35;;
32295;SDS011;18781;51.550;5.418;2024-02-28T07:24:09;58.45;;;28.65;;
32295;SDS011;18781;51.550;5.418;2024-02-28T07:26:34;54.75;;;29.67;;
32295;SDS011;18781;51.550;5.418;2024-02-28T07:29:00;61.55;;;30.40;;
32295;SDS011;18781;51.550;5.418;2024-02-28T07:31:26;53.05;;;27.98;;
32295;SDS011;18781;51.550;5.418;2024-02-28T07:33:52;56.30;;;28.92;;
32295;SDS011;18781;51.550;5.418;2024-02-28T07:36:17;52.35;;;27.52;;
32295;SDS011;18781;51.550;5.418;2024-02-28T07:38:44;57.03;;;29.17;;
32295;SDS011;18781;51.550;5.418;2024-02-28T07:41:09;51.53;;;28.55;;
32295;SDS011;18781;51.550;5.418;2024-02-28T07:43:35;58.58;;;29.65;;
32295;SDS011;18781;51.550;5.418;2024-02-28T07:46:07;57.42;;;29.73;;
32295;SDS011;18781;51.550;5.418;2024-02-28T07:48:34;59.05;;;30.50;;
32295;SDS011;18781;51.550;5.418;2024-02-28T07:51:00;59.80;;;30.15;;
32295;SDS011;18781;51.550;5.418;2024-02-28T07:53:26;57.75;;;30.38;;
32295;SDS011;18781;51.550;5.418;2024-02-28T07:55:51;55.25;;;29.77;;
32295;SDS011;18781;51.550;5.418;2024-02-28T07:58:17;56.15;;;28.17;;
32295;SDS011;18781;51.550;5.418;2024-02-28T08:00:43;61.97;;;29.60;;
32295;SDS011;18781;51.550;5.418;2024-02-28T08:03:09;51.58;;;30.23;;
32295;SDS011;18781;51.550;5.418;2024-02-28T08:05:35;61.17;;;30.83;;
32295;SDS011;18781;51.550;5.418;2024-02-28T08:08:04;55.55;;;29.83;;
32295;SDS011;18781;51.550;5.418;2024-02-28T08:10:31;65.50;;;31.85;;
32295;SDS011;18781;51.550;5.418;2024-02-28T08:12:57;57.25;;;30.70;;
32295;SDS011;18781;51.550;5.418;2024-02-28T08:15:22;60.05;;;30.65;;
32295;SDS011;18781;51.550;5.418;2024-02-28T08:17:48;58.22;;;30.58;;
32295;SDS011;18781;51.550;5.418;2024-02-28T08:20:14;64.15;;;32.03;;
32295;SDS011;18781;51.550;5.418;2024-02-28T08:22:39;66.65;;;32.20;;
32295;SDS011;18781;51.550;5.418;2024-02-28T08:25:05;62.60;;;32.03;;
32295;SDS011;18781;51.550;5.418;2024-02-28T08:27:31;53.80;;;30.13;;
32295;SDS011;18781;51.550;5.418;2024-02-28T08:29:59;54.13;;;30.08;;
32295;SDS011;18781;51.550;5.418;2024-02-28T08:32:24;61.50;;;31.35;;
32295;SDS011;18781;51.550;5.418;2024-02-28T08:34:50;65.28;;;32.88;;
32295;SDS011;18781;51.550;5.418;2024-02-28T08:37:16;60.65;;;31.73;;
32295;SDS011;18781;51.550;5.418;2024-02-28T08:39:42;57.05;;;31.23;;
32295;SDS011;18781;51.550;5.418;2024-02-28T08:42:08;54.25;;;30.25;;
32295;SDS011;18781;51.550;5.418;2024-02-28T08:44:33;57.15;;;29.65;;
32295;SDS011;18781;51.550;5.418;2024-02-28T08:46:59;59.08;;;31.10;;
32295;SDS011;18781;51.550;5.418;2024-02-28T08:49:24;58.45;;;30.13;;
32295;SDS011;18781;51.550;5.418;2024-02-28T08:51:51;58.80;;;30.77;;
32295;SDS011;18781;51.550;5.418;2024-02-28T08:54:17;65.57;;;30.45;;
32295;SDS011;18781;51.550;5.418;2024-02-28T08:56:42;68.45;;;31.75;;
32295;SDS011;18781;51.550;5.418;2024-02-28T08:59:08;65.20;;;29.55;;
32295;SDS011;18781;51.550;5.418;2024-02-28T09:01:34;65.05;;;30.00;;
32295;SDS011;18781;51.550;5.418;2024-02-28T09:04:00;62.90;;;30.52;;
32295;SDS011;18781;51.550;5.418;2024-02-28T09:06:28;73.68;;;29.60;;
32295;SDS011;18781;51.550;5.418;2024-02-28T09:08:53;66.47;;;29.25;;
32295;SDS011;18781;51.550;5.418;2024-02-28T09:11:19;67.78;;;28.95;;
32295;SDS011;18781;51.550;5.418;2024-02-28T09:13:44;60.22;;;28.95;;
32295;SDS011;18781;51.550;5.418;2024-02-28T09:16:10;64.00;;;29.40;;
32295;SDS011;18781;51.550;5.418;2024-02-28T09:18:36;65.38;;;30.05;;
32295;SDS011;18781;51.550;5.418;2024-02-28T09:21:01;60.75;;;29.10;;
32295;SDS011;18781;51.550;5.418;2024-02-28T09:23:27;59.50;;;29.08;;
32295;SDS011;18781;51.550;5.418;2024-02-28T09:25:53;71.95;;;30.42;;
32295;SDS011;18781;51.550;5.418;2024-02-28T09:28:19;65.60;;;29.63;;
32295;SDS011;18781;51.550;5.418;2024-02-28T09:30:45;57.17;;;28.70;;
32295;SDS011;18781;51.550;5.418;2024-02-28T09:33:12;61.17;;;29.55;;
32295;SDS011;18781;51.550;5.418;2024-02-28T09:35:38;65.68;;;29.33;;
32295;SDS011;18781;51.550;5.418;2024-02-28T09:38:04;57.80;;;27.15;;
32295;SDS011;18781;51.550;5.418;2024-02-28T09:40:30;66.60;;;29.77;;
32295;SDS011;18781;51.550;5.418;2024-02-28T09:43:04;61.10;;;28.85;;
32295;SDS011;18781;51.550;5.418;2024-02-28T09:45:31;62.42;;;28.60;;
32295;SDS011;18781;51.550;5.418;2024-02-28T09:48:00;65.22;;;30.80;;
32295;SDS011;18781;51.550;5.418;2024-02-28T09:50:26;64.05;;;30.73;;
32295;SDS011;18781;51.550;5.418;2024-02-28T09:52:52;68.95;;;33.53;;
32295;SDS011;18781;51.550;5.418;2024-02-28T09:55:19;75.93;;;32.63;;
32295;SDS011;18781;51.550;5.418;2024-02-28T09:57:46;70.55;;;32.35;;
32295;SDS011;18781;51.550;5.418;2024-02-28T10:00:14;79.50;;;34.30;;
32295;SDS011;18781;51.550;5.418;2024-02-28T10:02:44;85.30;;;33.45;;
32295;SDS011;18781;51.550;5.418;2024-02-28T10:05:12;67.03;;;30.77;;
32295;SDS011;18781;51.550;5.418;2024-02-28T10:07:38;73.20;;;30.92;;
32295;SDS011;18781;51.550;5.418;2024-02-28T10:10:05;65.18;;;30.90;;
32295;SDS011;18781;51.550;5.418;2024-02-28T10:12:33;63.95;;;29.23;;
32295;SDS011;18781;51.550;5.418;2024-02-28T10:15:02;59.13;;;28.20;;
32295;SDS011;18781;51.550;5.418;2024-02-28T10:17:28;64.88;;;29.45;;
32295;SDS011;18781;51.550;5.418;2024-02-28T10:19:54;61.83;;;28.98;;
32295;SDS011;18781;51.550;5.418;2024-02-28T10:22:19;67.50;;;28.27;;
32295;SDS011;18781;51.550;5.418;2024-02-28T10:24:45;64.63;;;28.40;;
32295;SDS011;18781;51.550;5.418;2024-02-28T10:27:15;66.85;;;27.55;;
32295;SDS011;18781;51.550;5.418;2024-02-28T10:29:41;57.90;;;27.70;;
32295;SDS011;18781;51.550;5.418;2024-02-28T10:32:09;68.78;;;27.08;;
32295;SDS011;18781;51.550;5.418;2024-02-28T10:34:35;64.72;;;28.10;;
32295;SDS011;18781;51.550;5.418;2024-02-28T10:37:03;57.92;;;25.75;;
32295;SDS011;18781;51.550;5.418;2024-02-28T10:39:30;73.80;;;27.38;;
32295;SDS011;18781;51.550;5.418;2024-02-28T10:41:57;68.13;;;26.17;;
32295;SDS011;18781;51.550;5.418;2024-02-28T10:44:26;57.33;;;25.70;;
32295;SDS011;18781;51.550;5.418;2024-02-28T10:46:53;57.92;;;25.02;;
32295;SDS011;18781;51.550;5.418;2024-02-28T10:49:20;57.40;;;24.92;;
32295;SDS011;18781;51.550;5.418;2024-02-28T10:51:47;59.05;;;24.70;;
32295;SDS011;18781;51.550;5.418;2024-02-28T10:54:14;52.47;;;24.92;;
32295;SDS011;18781;51.550;5.418;2024-02-28T10:56:41;51.88;;;24.25;;
32295;SDS011;18781;51.550;5.418;2024-02-28T10:59:08;61.67;;;23.42;;
32295;SDS011;18781;51.550;5.418;2024-02-28T11:01:35;54.40;;;24.25;;
32295;SDS011;18781;51.550;5.418;2024-02-28T11:04:03;45.70;;;24.50;;
32295;SDS011;18781;51.550;5.418;2024-02-28T11:06:30;47.28;;;23.85;;
32295;SDS011;18781;51.550;5.418;2024-02-28T11:08:58;55.53;;;24.30;;
32295;SDS011;18781;51.550;5.418;2024-02-28T11:11:29;48.10;;;23.67;;
32295;SDS011;18781;51.550;5.418;2024-02-28T11:13:58;52.95;;;26.20;;
32295;SDS011;18781;51.550;5.418;2024-02-28T11:16:31;48.97;;;24.85;;
32295;SDS011;18781;51.550;5.418;2024-02-28T11:18:57;46.05;;;23.83;;
32295;SDS011;18781;51.550;5.418;2024-02-28T11:21:27;43.08;;;22.65;;
32295;SDS011;18781;51.550;5.418;2024-02-28T11:23:57;43.13;;;22.55;;
32295;SDS011;18781;51.550;5.418;2024-02-28T11:26:23;42.17;;;22.42;;
32295;SDS011;18781;51.550;5.418;2024-02-28T11:28:49;60.60;;;22.98;;
32295;SDS011;18781;51.550;5.418;2024-02-28T11:31:15;52.90;;;22.95;;
32295;SDS011;18781;51.550;5.418;2024-02-28T11:33:41;65.00;;;23.20;;
32295;SDS011;18781;51.550;5.418;2024-02-28T11:36:07;57.25;;;22.08;;
32295;SDS011;18781;51.550;5.418;2024-02-28T11:38:34;58.53;;;21.92;;
32295;SDS011;18781;51.550;5.418;2024-02-28T11:41:03;51.15;;;20.20;;
32295;SDS011;18781;51.550;5.418;2024-02-28T11:43:30;55.42;;;20.13;;
32295;SDS011;18781;51.550;5.418;2024-02-28T11:45:57;56.85;;;21.48;;
32295;SDS011;18781;51.550;5.418;2024-02-28T11:48:23;52.90;;;19.67;;
32295;SDS011;18781;51.550;5.418;2024-02-28T11:50:50;49.08;;;20.60;;
32295;SDS011;18781;51.550;5.418;2024-02-28T11:53:16;47.72;;;20.85;;
32295;SDS011;18781;51.550;5.418;2024-02-28T11:55:42;56.05;;;22.35;;
32295;SDS011;18781;51.550;5.418;2024-02-28T11:58:09;51.58;;;20.85;;
32295;SDS011;18781;51.550;5.418;2024-02-28T12:00:46;54.05;;;20.33;;
32295;SDS011;18781;51.550;5.418;2024-02-28T12:03:12;42.25;;;18.23;;
32295;SDS011;18781;51.550;5.418;2024-02-28T12:05:38;43.72;;;17.48;;
32295;SDS011;18781;51.550;5.418;2024-02-28T12:08:05;46.67;;;19.50;;
32295;SDS011;18781;51.550;5.418;2024-02-28T12:10:31;41.88;;;17.95;;
32295;SDS011;18781;51.550;5.418;2024-02-28T12:13:00;40.70;;;19.00;;
32295;SDS011;18781;51.550;5.418;2024-02-28T12:15:28;40.58;;;18.10;;
32295;SDS011;18781;51.550;5.418;2024-02-28T12:17:57;38.20;;;17.75;;
32295;SDS011;18781;51.550;5.418;2024-02-28T12:20:25;44.37;;;16.27;;
32295;SDS011;18781;51.550;5.418;2024-02-28T12:22:51;38.53;;;16.70;;
32295;SDS011;18781;51.550;5.418;2024-02-28T12:25:16;35.42;;;15.02;;
32295;SDS011;18781;51.550;5.418;2024-02-28T12:27:42;41.25;;;18.13;;
32295;SDS011;18781;51.550;5.418;2024-02-28T12:30:08;37.22;;;16.98;;
32295;SDS011;18781;51.550;5.418;2024-02-28T12:32:34;31.73;;;16.35;;
32295;SDS011;18781;51.550;5.418;2024-02-28T12:34:59;38.03;;;16.60;;
32295;SDS011;18781;51.550;5.418;2024-02-28T12:37:25;34.75;;;17.38;;
32295;SDS011;18781;51.550;5.418;2024-02-28T12:39:51;34.15;;;17.02;;
32295;SDS011;18781;51.550;5.418;2024-02-28T12:42:17;34.78;;;16.20;;
32295;SDS011;18781;51.550;5.418;2024-02-28T12:44:43;29.85;;;17.13;;
32295;SDS011;18781;51.550;5.418;2024-02-28T12:47:11;30.63;;;16.88;;
32295;SDS011;18781;51.550;5.418;2024-02-28T12:49:37;40.15;;;17.63;;
32295;SDS011;18781;51.550;5.418;2024-02-28T12:52:03;36.40;;;17.85;;
32295;SDS011;18781;51.550;5.418;2024-02-28T12:54:29;33.17;;;18.00;;
32295;SDS011;18781;51.550;5.418;2024-02-28T12:56:55;35.28;;;17.77;;
32295;SDS011;18781;51.550;5.418;2024-02-28T12:59:20;37.75;;;17.63;;
32295;SDS011;18781;51.550;5.418;2024-02-28T13:01:47;39.47;;;19.40;;
32295;SDS011;18781;51.550;5.418;2024-02-28T13:04:15;34.77;;;19.63;;
32295;SDS011;18781;51.550;5.418;2024-02-28T13:06:41;37.08;;;20.58;;
32295;SDS011;18781;51.550;5.418;2024-02-28T13:09:06;35.53;;;20.40;;
32295;SDS011;18781;51.550;5.418;2024-02-28T13:11:37;37.17;;;20.00;;
32295;SDS011;18781;51.550;5.418;2024-02-28T13:14:03;36.15;;;21.27;;
32295;SDS011;18781;51.550;5.418;2024-02-28T13:16:29;35.97;;;22.23;;
32295;SDS011;18781;51.550;5.418;2024-02-28T13:18:55;38.58;;;22.08;;
32295;SDS011;18781;51.550;5.418;2024-02-28T13:21:21;36.25;;;20.15;;
32295;SDS011;18781;51.550;5.418;2024-02-28T13:23:46;44.17;;;21.65;;
32295;SDS011;18781;51.550;5.418;2024-02-28T13:26:12;38.45;;;21.25;;
32295;SDS011;18781;51.550;5.418;2024-02-28T13:28:45;35.45;;;19.85;;
32295;SDS011;18781;51.550;5.418;2024-02-28T13:31:11;40.47;;;20.52;;
32295;SDS011;18781;51.550;5.418;2024-02-28T13:33:37;35.72;;;20.02;;
32295;SDS011;18781;51.550;5.418;2024-02-28T13:36:03;37.92;;;22.45;;
32295;SDS011;18781;51.550;5.418;2024-02-28T13:38:29;44.00;;;22.80;;
32295;SDS011;18781;51.550;5.418;2024-02-28T13:40:55;35.78;;;21.08;;
32295;SDS011;18781;51.550;5.418;2024-02-28T13:43:21;39.25;;;22.90;;
32295;SDS011;18781;51.550;5.418;2024-02-28T13:45:47;38.97;;;23.70;;
32295;SDS011;18781;51.550;5.418;2024-02-28T13:48:17;44.72;;;23.90;;
32295;SDS011;18781;51.550;5.418;2024-02-28T13:50:46;48.72;;;24.63;;
32295;SDS011;18781;51.550;5.418;2024-02-28T13:53:12;43.38;;;24.80;;
32295;SDS011;18781;51.550;5.418;2024-02-28T13:55:40;43.03;;;24.45;;
32295;SDS011;18781;51.550;5.418;2024-02-28T13:58:07;40.22;;;23.23;;
32295;SDS011;18781;51.550;5.418;2024-02-28T14:00:34;43.80;;;25.55;;
32295;SDS011;18781;51.550;5.418;2024-02-28T14:03:00;44.90;;;25.00;;
32295;SDS011;18781;51.550;5.418;2024-02-28T14:05:26;42.45;;;23.50;;
32295;SDS011;18781;51.550;5.418;2024-02-28T14:07:53;42.08;;;22.90;;
32295;SDS011;18781;51.550;5.418;2024-02-28T14:10:18;40.92;;;22.60;;
32295;SDS011;18781;51.550;5.418;2024-02-28T14:12:44;38.67;;;21.98;;
32295;SDS011;18781;51.550;5.418;2024-02-28T14:15:09;40.15;;;20.42;;
32295;SDS011;18781;51.550;5.418;2024-02-28T14:17:36;33.55;;;19.98;;